Tiempo atmosférico en la estación meteorológica de Castell Del Ferro, Granada (235 m.)



Fecha
DESCASC
Temp. máxima en grados centígrados (hora)
DESCASC
Temp. mínima en grados centígrados (hora)
DESCASC
Temp. media en grados centígrados
DESCASC
Racha de viento máxima en m/sg (hora)
DESCASC
Velocidad máxima media en intervalos de 10 minutos(hora)
DESCASC
Precipitaciones diarias en mm
DESCASC
Precipitaciones de 00:00 a 06:00 en mm
DESCASC
Precipitaciones de 06:00 a 12:00 en mm
DESCASC
Precipitaciones de 12:00 a 18:00 en mm
DESCASC
Precipitaciones de 18:00 a 24:00 en mm
DESCASC

Gráficas

Temp. máximas Temp. mínimas Temp. medias Precipitaciones Rachas de viento máximas Velocidades máximas media en intervalos de 10 minutos

Datos horarios

Fecha y hora oficial Temperatura (ºC) Velocidad del viento (km/h) Dirección del viento Racha (km/h) Dirección de racha Precipitación (mm) Presión (hPa) Tendencia (hPa) Humedad (%)
2020-04-06 23:00:00 13.8 3 Sudeste 5 Sudeste 0 -- -- 87
2020-04-06 22:00:00 13.8 3 Sudeste 5 Sudeste 0 -- -- 87
2020-04-06 21:00:00 13.9 2 Sudeste 4 Sudeste 0 -- -- 86
2020-04-06 20:00:00 14.1 3 Oeste 10 Este 0 -- -- 85
2020-04-06 19:00:00 14.5 8 Sudeste 14 Sudeste 0 -- -- 84
2020-04-06 18:00:00 14.9 6 Sur 13 Sudeste 0 -- -- 83
2020-04-06 17:00:00 15.1 6 Sudeste 13 Sudeste 0 -- -- 84
2020-04-06 16:00:00 15.1 7 Sudeste 14 Sudeste 0 -- -- 82
2020-04-06 15:00:00 14.7 4 Sur 13 Sudoeste 0 -- -- 84
2020-04-06 14:00:00 14.6 5 Sudeste 17 Sudeste 0 -- -- 84
2020-04-06 13:00:00 15.3 9 Sudeste 15 Sudeste 0 -- -- 82
2020-04-06 12:00:00 15.2 6 Este 15 Sudeste 0 -- -- 83
2020-04-06 11:00:00 14.5 9 Este 15 Este 0 -- -- 86
2020-04-06 10:00:00 14.4 4 Nordeste 8 Noroeste 0 -- -- 79
2020-04-06 09:00:00 13.2 0 Calma -- -- 0 -- -- 83
2020-04-06 08:00:00 13 0 Calma -- -- 0 -- -- 87
2020-04-06 07:00:00 13.2 0 Calma -- -- 0 -- -- 89
2020-04-06 06:00:00 12.9 0 Calma -- -- 0 -- -- 90
2020-04-06 05:00:00 12.8 0 Calma -- -- 0 -- -- 92
2020-04-06 04:00:00 13.1 0 Calma 3 Sudeste 0 -- -- 91
2020-04-06 03:00:00 13.4 0 Calma 5 Sudeste 0 -- -- 89
2020-04-06 02:00:00 13.4 3 Sudeste 8 Este 0 -- -- 89
2020-04-06 01:00:00 13.7 4 Sudeste 7 Sudeste 0 -- -- 88
2020-04-06 00:00:00 13.7 3 Sudeste 7 Sudeste 0 -- -- 85
2020-04-05 23:00:00 13.8 5 Sudeste 9 Sudeste 0 -- -- 85
2020-04-05 22:00:00 13.8 5 Sudeste 10 Sudeste 0 -- -- 84
2020-04-05 21:00:00 13.9 9 Sudeste 13 Sudeste 0 -- -- 86
2020-04-05 20:00:00 14.1 8 Sudeste 13 Sudeste 0 -- -- 84
2020-04-05 19:00:00 14.5 6 Sudeste 13 Sudeste 0 -- -- 80
2020-04-05 18:00:00 15.1 8 Sudeste 16 Sudeste 0 -- -- 77
2020-04-05 17:00:00 15.2 11 Sudeste 22 Sudeste 0 -- -- 76
2020-04-05 16:00:00 16 13 Sudeste 23 Sudeste 0 -- -- 73
2020-04-05 15:00:00 16.8 17 Sudeste 27 Sudeste 0 -- -- 60
2020-04-05 14:00:00 18.2 11 Sudoeste 24 Sudoeste 0 -- -- 60
2020-04-05 13:00:00 19.1 9 Sudoeste 22 Sudoeste 0 -- -- 49
2020-04-05 12:00:00 19.6 10 Nordeste 17 Nordeste 0 -- -- 49
2020-04-05 11:00:00 17.9 6 Este 11 Este 0 -- -- 54
2020-04-05 10:00:00 14.5 0 Calma 6 Sudoeste 0 -- -- 71
2020-04-05 09:00:00 12.6 4 Sur 8 Sudoeste 0 -- -- 77
2020-04-05 08:00:00 11.5 0 Calma 6 Sur 0 -- -- 77
2020-04-05 07:00:00 12.3 4 Sudoeste 9 Sudoeste 0 -- -- 79
2020-04-05 06:00:00 12.4 4 Sudeste 6 Sudeste 0 -- -- 81
2020-04-05 05:00:00 12.8 0 Calma 4 Oeste 0 -- -- 81
2020-04-05 04:00:00 12.6 2 Oeste 5 Sudoeste 0 -- -- 82
2020-04-05 03:00:00 12.3 2 Sudoeste 10 Sur 0 -- -- 83
2020-04-05 02:00:00 12.9 7 Sur 9 Sur 0 -- -- 80
2020-04-05 01:00:00 13.3 4 Sudoeste 10 Sur 0 -- -- 79
2020-04-05 00:00:00 13.7 6 Sur 12 Sudeste 0 -- -- 81
2020-04-04 23:00:00 13.9 4 Sur 16 Sudeste 0 -- -- 78
2020-04-04 22:00:00 14.4 8 Sur 21 Sur 0 -- -- 77
2020-04-04 21:00:00 14.6 9 Este 33 Sudeste 0 -- -- 75
2020-04-04 20:00:00 15 17 Sudeste 28 Este 0 -- -- 72
2020-04-04 19:00:00 14.9 13 Este 26 Este 0 -- -- 76
2020-04-04 18:00:00 15.7 10 Sudeste 19 Sudeste 0 -- -- 65
2020-04-04 17:00:00 15.6 8 Este 26 Sudeste 0 -- -- 69
2020-04-04 16:00:00 16.3 17 Sudeste 32 Sudeste 0 -- -- 70
2020-04-04 15:00:00 17.1 19 Este 35 Este 0 -- -- 68
2020-04-04 14:00:00 16.8 19 Este 36 Este 0 -- -- 68
2020-04-04 13:00:00 16.7 22 Este 36 Este 0 -- -- 65
2020-04-04 12:00:00 16.8 22 Este 36 Este 0 -- -- 62
2020-04-04 11:00:00 15.8 24 Este 38 Este 0 -- -- 62
2020-04-04 10:00:00 14.9 21 Este 35 Este 0 -- -- 65
2020-04-04 09:00:00 14.2 17 Este 27 Este 0 -- -- 68
2020-04-04 08:00:00 12.2 10 Sudeste 20 Sudeste 0 -- -- 69
2020-04-04 07:00:00 11.7 11 Sudeste 20 Sudeste 0 -- -- 75
2020-04-04 06:00:00 11.7 12 Sudeste 21 Sudeste 0 -- -- 76
2020-04-04 05:00:00 11.8 14 Sudeste 29 Sudeste 0 -- -- 76
2020-04-04 04:00:00 12.2 10 Sudeste 20 Sudeste 0 -- -- 74
2020-04-04 03:00:00 11.8 6 Sudeste 15 Este 0 -- -- 74
2020-04-04 02:00:00 11.8 10 Este 20 Este 0 -- -- 77
2020-04-04 01:00:00 11.8 9 Este 18 Sudeste 0 -- -- 77
2020-04-04 00:00:00 12 6 Este 12 Este 0 -- -- 82
2020-04-03 23:00:00 12.2 5 Este 19 Sudeste 0 -- -- 84
2020-04-03 22:00:00 12.4 8 Sudeste 15 Este 0 -- -- 85
2020-04-03 21:00:00 12.7 6 Este 11 Sudeste 0 -- -- 81
2020-04-03 20:00:00 13.7 8 Este 13 Este 0 -- -- 77
2020-04-03 19:00:00 14.5 8 Este 15 Este 0 -- -- 72
2020-04-03 18:00:00 15.4 8 Este 19 Este 0 -- -- 71
2020-04-03 17:00:00 15.3 10 Sudeste 20 Sudeste 0 -- -- 70
2020-04-03 16:00:00 15.9 10 Este 20 Nordeste 0 -- -- 71
2020-04-03 15:00:00 16.3 13 Este 22 Este 0 -- -- 69
2020-04-03 14:00:00 16.9 11 Este 21 Sudeste 0 -- -- 65
2020-04-03 13:00:00 16.5 11 Sudeste 18 Sudeste 0 -- -- 65
2020-04-03 12:00:00 16.2 9 Este 17 Este 0 -- -- 68
2020-04-03 11:00:00 15.9 10 Este 15 Este 0.2 -- -- 65
2020-04-03 10:00:00 15.2 5 Este 11 Este 0 -- -- 54
2020-04-03 09:00:00 13.5 3 Este 6 Sudeste 0 -- -- 55
2020-04-03 08:00:00 10.1 0 Calma 8 Oeste 0 -- -- 65
2020-04-03 07:00:00 10.7 4 Oeste 6 Oeste 0 -- -- 61
2020-04-03 06:00:00 10.5 3 Oeste 9 Noroeste 0 -- -- 61
2020-04-03 05:00:00 9.8 0 Calma 5 Oeste 0 -- -- 66
2020-04-03 04:00:00 10.4 4 Sudeste 7 Oeste 0 -- -- 62
2020-04-03 03:00:00 10.5 2 Sudoeste 10 Noroeste 0 -- -- 61
2020-04-03 02:00:00 10.8 4 Oeste 9 Oeste 0 -- -- 60
2020-04-03 01:00:00 10.8 3 Oeste 12 Oeste 0 -- -- 62
2020-04-03 00:00:00 10.5 5 Oeste 13 Oeste 0 -- -- 67
2020-04-02 23:00:00 10.4 5 Oeste 8 Oeste 0 -- -- 69
2020-04-02 22:00:00 10.2 2 Oeste 14 Oeste 0 -- -- 71
2020-04-02 21:00:00 10.6 11 Oeste 24 Sudoeste 0 -- -- 68
2020-04-02 20:00:00 11.2 7 Oeste 35 Noroeste 0 -- -- 70
2020-04-02 19:00:00 11.2 12 Noroeste 23 Oeste 0 -- -- 67
2020-04-02 18:00:00 10.4 5 Norte 22 Oeste 0.2 -- -- 80
2020-04-02 17:00:00 12.4 4 Oeste 21 Sur 0 -- -- 71
2020-04-02 16:00:00 12.8 6 Este 14 Sudeste 0.2 -- -- 79
2020-04-02 15:00:00 11.7 7 Este 21 Sudeste 0.2 -- -- 87
2020-04-02 14:00:00 12.5 10 Sudeste 21 Sudeste 0 -- -- 75
2020-04-02 13:00:00 13.3 13 Sudeste 21 Sudeste 0 -- -- 80
2020-04-02 12:00:00 11.1 8 Sudeste 12 Sudeste 0.2 -- -- 84
2020-04-02 11:00:00 9.6 3 Nordeste 14 Sur 2.2 -- -- 91
2020-04-02 10:00:00 9.9 6 Oeste 15 Oeste 1.8 -- -- 82
2020-04-02 09:00:00 9.9 9 Oeste 19 Oeste 2.6 -- -- 84
2020-04-02 08:00:00 11.7 0 Calma 20 Oeste 0 -- -- 70
2020-04-02 07:00:00 12.2 13 Oeste 23 Oeste 0 -- -- 71
2020-04-02 06:00:00 12.2 9 Oeste 21 Oeste 0 -- -- 62
2020-04-02 05:00:00 12 12 Oeste 31 Oeste 0 -- -- 63
2020-04-02 04:00:00 11.9 19 Oeste 32 Oeste 0 -- -- 65
2020-04-02 03:00:00 11.9 17 Oeste 28 Oeste 0 -- -- 59
2020-04-02 02:00:00 12.9 14 Oeste 30 Oeste 0 -- -- 56
2020-04-02 01:00:00 13.2 21 Oeste 40 Noroeste 0 -- -- 58
2020-04-02 00:00:00 13 19 Oeste 29 Noroeste 0 -- -- 59
2020-04-01 23:00:00 13 17 Oeste 38 Oeste 0 -- -- 75
2020-04-01 22:00:00 13.3 17 Oeste 33 Oeste 0 -- -- 73
2020-04-01 21:00:00 13.4 17 Oeste 35 Noroeste 0 -- -- 75
2020-04-01 20:00:00 13.7 20 Oeste 41 Oeste 0 -- -- 76
2020-04-01 19:00:00 15.6 18 Oeste 35 Oeste 0 -- -- 61
2020-04-01 18:00:00 16.8 14 Oeste 33 Oeste 0 -- -- 54
2020-04-01 17:00:00 16.2 18 Noroeste 34 Noroeste 0 -- -- 66
2020-04-01 16:00:00 16.7 17 Oeste 32 Oeste 0 -- -- 63
2020-04-01 15:00:00 16.7 19 Oeste 33 Oeste 0 -- -- 65
2020-04-01 14:00:00 16.8 15 Oeste 33 Oeste 0 -- -- 63
2020-04-01 13:00:00 16.5 15 Oeste 30 Oeste 0 -- -- 69
2020-04-01 12:00:00 16 10 Oeste 21 Oeste 0 -- -- 72
2020-04-01 11:00:00 15 7 Noroeste 17 Oeste 0 -- -- 79
2020-04-01 10:00:00 13.9 0 Calma 8 Oeste 0 -- -- 83
2020-04-01 09:00:00 12.4 0 Calma 6 Noroeste 0.2 -- -- 88
2020-04-01 08:00:00 12.3 6 Oeste 11 Sudoeste 0.2 -- -- 84
2020-04-01 07:00:00 11.9 3 Oeste 5 Sudoeste 0 -- -- 86
2020-04-01 06:00:00 11.6 3 Sudoeste 9 Oeste 0 -- -- 88
2020-04-01 05:00:00 11.8 0 Calma 8 Sudoeste 0 -- -- 90
2020-04-01 04:00:00 12.6 5 Sudoeste 15 Sudoeste 0 -- -- 80
2020-04-01 03:00:00 12.4 7 Oeste 16 Noroeste 0 -- -- 78
2020-04-01 02:00:00 12.4 7 Oeste 13 Oeste 2 -- -- 86
2020-04-01 01:00:00 12.9 5 Sudeste 11 Sur 3.2 -- -- 90
2020-04-01 00:00:00 13.2 4 Oeste 14 Sudoeste 1.2 -- -- 88
2020-03-31 23:00:00 13.8 5 Sudoeste 15 Oeste 0.4 -- -- 81
2020-03-31 22:00:00 13.9 7 Oeste 14 Noroeste 0 -- -- 80
2020-03-31 21:00:00 14 5 Sudoeste 12 Oeste 0 -- -- 80
2020-03-31 20:00:00 13.9 7 Oeste 17 Noroeste 0 -- -- 80
2020-03-31 19:00:00 14.5 2 Oeste 12 Noroeste 0.2 -- -- 80
2020-03-31 18:00:00 14.6 0 Calma 10 Oeste 1.2 -- -- 87
2020-03-31 17:00:00 14.2 6 Oeste 12 Este 1 -- -- 83
2020-03-31 16:00:00 14.2 9 Este 12 Sudeste 0 -- -- 79
2020-03-31 15:00:00 14.6 6 Noroeste 10 Nordeste 0 -- -- 75
2020-03-31 14:00:00 13.3 3 Noroeste 8 Nordeste 0 -- -- 81
2020-03-31 13:00:00 13.2 2 Sur 9 Este 0 -- -- 78
2020-03-31 12:00:00 13 0 Calma 6 Norte 0 -- -- 79
2020-03-31 11:00:00 12.5 5 Este 9 Sudeste 0 -- -- 84
2020-03-31 10:00:00 11.7 4 Noroeste 9 Oeste 0.6 -- -- 85
2020-03-31 09:00:00 11.2 3 Sudeste 10 Sudeste 1.2 -- -- 89
2020-03-31 08:00:00 11.2 5 Sudeste 9 Oeste 0 -- -- 88
2020-03-31 07:00:00 10.8 6 Oeste 10 Oeste 1.8 -- -- 89
2020-03-31 06:00:00 10.9 5 Noroeste 10 Oeste 5.8 -- -- 89
2020-03-31 05:00:00 11.7 10 Sudoeste 21 Este 2 -- -- 81
2020-03-31 04:00:00 12.8 20 Sudeste 36 Este 0.4 -- -- 91
2020-03-31 03:00:00 13.1 20 Este 33 Este 0 -- -- 89
2020-03-31 02:00:00 13.3 12 Este 18 Este 0 -- -- 86
2020-03-31 01:00:00 13.4 3 Sudeste 13 Norte 0 -- -- 83
2020-03-31 00:00:00 13.8 3 Norte 11 Este 0 -- -- 76
2020-03-30 23:00:00 13.9 2 Sur 6 Sudeste 0 -- -- 67
2020-03-30 22:00:00 14.5 4 Sur 5 Sur 0 -- -- 62
2020-03-30 21:00:00 14.8 4 Sur 6 Sudoeste 0 -- -- 55
2020-03-30 20:00:00 15.8 0 Calma 8 Oeste 0 -- -- 44
2020-03-30 19:00:00 16.6 5 Sudeste 26 Oeste 0 -- -- 51
2020-03-30 18:00:00 17.2 9 Oeste 22 Oeste 0 -- -- 47
2020-03-30 17:00:00 18.1 13 Oeste 26 Oeste 0 -- -- 41
2020-03-30 16:00:00 18.2 12 Oeste 29 Oeste 0 -- -- 43
2020-03-30 15:00:00 18.6 16 Oeste 28 Oeste 0 -- -- 46
2020-03-30 14:00:00 18.5 14 Oeste 27 Oeste 0 -- -- 50
2020-03-30 13:00:00 18.8 5 Nordeste 14 Este 0 -- -- 55
2020-03-30 12:00:00 16.8 5 Nordeste 12 Este 0 -- -- 69
2020-03-30 11:00:00 16.5 8 Este 13 Este 0 -- -- 60
2020-03-30 10:00:00 15.1 3 Nordeste 6 Nordeste 0 -- -- 66
2020-03-30 09:00:00 13 3 Sudeste 6 Sur 0 -- -- 72
2020-03-30 08:00:00 11.2 3 Sur 6 Sur 0 -- -- 77
2020-03-30 07:00:00 11.8 3 Sur 9 Oeste 0 -- -- 80
2020-03-30 06:00:00 11.9 3 Sudoeste 8 Sudeste 0 -- -- 80
2020-03-30 05:00:00 11.6 2 Sur 9 Sudeste 0 -- -- 81
2020-03-30 04:00:00 11.7 2 Norte 5 Sur 0 -- -- 75
2020-03-30 03:00:00 11.4 3 Sudoeste 7 Oeste 0 -- -- 78
2020-03-30 02:00:00 11.7 2 Oeste 18 Oeste 0 -- -- 79
2020-03-30 01:00:00 12.4 6 Noroeste 21 Oeste 0 -- -- 82
2020-03-30 00:00:00 12.3 9 Oeste 18 Oeste 0 -- -- 81
2020-03-29 23:00:00 12.2 5 Sur 9 Sur 0 -- -- 78
2020-03-29 22:00:00 12.3 0 Calma 12 Sur 0 -- -- 74
2020-03-29 21:00:00 13 2 Sur 7 Sudeste 0 -- -- 68
2020-03-29 20:00:00 14.7 3 Sudeste 12 Sudoeste 0 -- -- 62
2020-03-29 19:00:00 17 8 Oeste 20 Oeste 0 -- -- 47
2020-03-29 18:00:00 17.5 12 Oeste 24 Oeste 0 -- -- 41
2020-03-29 17:00:00 17.3 12 Sudoeste 27 Sudoeste 0 -- -- 55
2020-03-29 16:00:00 17.3 16 Sudoeste 28 Sur 0 -- -- 54
2020-03-29 15:00:00 17.5 14 Sudoeste 27 Sur 0 -- -- 57
2020-03-29 14:00:00 17.3 14 Sudoeste 27 Sudoeste 0 -- -- 59
2020-03-29 13:00:00 17.9 9 Oeste 22 Sur 0 -- -- 54
2020-03-29 12:00:00 16.8 8 Nordeste 18 Este 0 -- -- 58
2020-03-29 11:00:00 15.6 9 Este 15 Este 0 -- -- 64
2020-03-29 10:00:00 15.4 5 Este 9 Sudeste 0 -- -- 62
2020-03-29 09:00:00 12.5 2 Nordeste 5 Sur 0 -- -- 65
2020-03-29 08:00:00 10.6 5 Sur 7 Sudeste 0 -- -- 70
2020-03-29 07:00:00 10.8 0 Calma 5 Sudoeste 0 -- -- 63
2020-03-29 06:00:00 10.8 3 Sudoeste 8 Oeste 0 -- -- 67
2020-03-29 05:00:00 10.6 4 Oeste 8 Oeste 0 -- -- 68
2020-03-29 03:00:00 11.2 0 Calma 6 Sudoeste 0 -- -- 80
2020-03-29 01:00:00 11.5 3 Sudoeste 5 Oeste 0 -- -- 80
2020-03-29 00:00:00 11.8 0 Calma 5 Este 0 -- -- 79
2020-03-28 23:00:00 12.1 0 Calma 7 Sudeste 0 -- -- 78
2020-03-28 22:00:00 12 3 Este 9 Este 0 -- -- 78
2020-03-28 21:00:00 12.1 5 Este 10 Este 0 -- -- 78
2020-03-28 20:00:00 12.1 6 Este 11 Este 0 -- -- 76
2020-03-28 19:00:00 12.2 7 Este 14 Este 0 -- -- 76
2020-03-28 18:00:00 12.6 9 Este 16 Este 0 -- -- 75
2020-03-28 17:00:00 13 10 Este 19 Sudeste 0 -- -- 71
2020-03-28 16:00:00 13.7 8 Este 18 Este 0 -- -- 68
2020-03-28 15:00:00 14.2 12 Este 27 Sudeste 0 -- -- 66
2020-03-28 14:00:00 15.3 17 Este 28 Sudeste 0 -- -- 63
2020-03-28 13:00:00 14.4 14 Sudeste 23 Este 0 -- -- 63
2020-03-28 12:00:00 14.3 11 Este 21 Este 0 -- -- 65
2020-03-28 11:00:00 12.7 9 Este 18 Sudeste 0 -- -- 74
2020-03-28 10:00:00 13 8 Sudeste 13 Sudeste 0 -- -- 73
2020-03-28 09:00:00 12.2 0 Calma 3 Nordeste 0 -- -- 78
2020-03-28 08:00:00 11.3 0 Calma 7 Sudeste 0 -- -- 83
2020-03-28 07:00:00 9.7 3 Sur 6 Oeste 0 -- -- 87
2020-03-28 06:00:00 10.3 3 Oeste 6 Noroeste 0 -- -- 85
2020-03-28 05:00:00 10.8 3 Oeste 6 Nordeste 0 -- -- 85
2020-03-28 04:00:00 10.6 2 Este 6 Este 0 -- -- 86
2020-03-28 03:00:00 10.6 3 Este 12 Sudeste 0 -- -- 88
2020-03-28 02:00:00 10.5 0 Calma 10 Sudeste 1.2 -- -- 90
2020-03-28 01:00:00 10.7 3 Sudeste 12 Oeste 2.2 -- -- 89
2020-03-28 00:00:00 11.4 5 Oeste 12 Este 3.4 -- -- 88
2020-03-27 23:00:00 12.3 10 Este 17 Sudeste 0 -- -- 80
2020-03-27 22:00:00 12.4 10 Sudeste 14 Sudeste 0 -- -- 77
2020-03-27 21:00:00 11.9 4 Sudeste 6 Este 0 -- -- 80
2020-03-27 20:00:00 11.6 0 Calma 8 Este 0 -- -- 81
2020-03-27 19:00:00 12.4 5 Este 11 Este 0 -- -- 77
2020-03-27 18:00:00 13 9 Sudeste 19 Sudeste 0 -- -- 73
2020-03-27 17:00:00 14.2 9 Este 17 Este 0 -- -- 65
2020-03-27 16:00:00 13.9 10 Este 19 Este 0 -- -- 68
2020-03-27 15:00:00 14.3 12 Este 22 Sudeste 0 -- -- 63
2020-03-27 14:00:00 14.6 15 Sudeste 23 Sudeste 0 -- -- 55
2020-03-27 13:00:00 14.6 14 Este 26 Este 0 -- -- 61
2020-03-27 12:00:00 13.2 13 Este 24 Sudeste 0 -- -- 64
2020-03-27 11:00:00 12.9 18 Este 28 Este 0 -- -- 65
2020-03-27 10:00:00 12.5 17 Este 27 Este 0 -- -- 70
2020-03-27 09:00:00 12.1 14 Este 24 Este 0 -- -- 69
2020-03-27 08:00:00 11.7 10 Este 29 Sudeste 0 -- -- 70
2020-03-27 07:00:00 11.8 17 Este 35 Este 0 -- -- 68
2020-03-27 06:00:00 11.9 22 Este 33 Este 0 -- -- 70
2020-03-27 05:00:00 11.9 19 Este 29 Este 0 -- -- 76
2020-03-27 04:00:00 11.9 15 Este 29 Este 0 -- -- 76
2020-03-27 03:00:00 12.1 20 Este 32 Este 0 -- -- 79
2020-03-27 02:00:00 12.5 18 Sudeste 29 Este 0 -- -- 83
2020-03-27 01:00:00 13.7 8 Sudeste 20 Sudeste 0 -- -- 74
2020-03-27 00:00:00 14.9 12 Este 38 Noroeste 0 -- -- 75
2020-03-26 23:00:00 17.5 29 Oeste 55 Oeste 0 -- -- 48
2020-03-26 22:00:00 17.8 34 Noroeste 55 Noroeste 0 -- -- 47
2020-03-26 21:00:00 17.8 35 Oeste 54 Oeste 0 -- -- 48
2020-03-26 20:00:00 17.7 35 Oeste 60 Oeste 0 -- -- 50
2020-03-26 19:00:00 16.2 29 Oeste 54 Oeste 0 -- -- 70
2020-03-26 18:00:00 16.8 38 Oeste 58 Oeste 0 -- -- 70
2020-03-26 17:00:00 18.1 36 Oeste 59 Oeste 0 -- -- 61
2020-03-26 16:00:00 18.4 39 Oeste 63 Oeste 0 -- -- 61
2020-03-26 15:00:00 18.9 40 Oeste 65 Oeste 0 -- -- 57
2020-03-26 14:00:00 20 30 Oeste 55 Oeste 0 -- -- 46
2020-03-26 13:00:00 19.3 33 Oeste 59 Oeste 0 -- -- 46
2020-03-26 12:00:00 17.6 35 Oeste 62 Oeste 0 -- -- 59
2020-03-26 11:00:00 16.6 31 Oeste 63 Noroeste 0 -- -- 64
2020-03-26 10:00:00 14.8 31 Oeste 53 Oeste 0 -- -- 69
2020-03-26 09:00:00 14.3 41 Oeste 58 Oeste 0 -- -- 66
2020-03-26 08:00:00 13.5 32 Oeste 49 Oeste 0 -- -- 67
2020-03-26 07:00:00 10.9 33 Oeste 54 Noroeste 0 -- -- 80
2020-03-26 06:00:00 13.3 38 Oeste 57 Oeste 0 -- -- 70
2020-03-26 05:00:00 12.8 31 Oeste 51 Oeste 0 -- -- 69
2020-03-26 04:00:00 12 27 Oeste 48 Oeste 0 -- -- 72
2020-03-26 03:00:00 10.3 4 Nordeste 12 Nordeste 0 -- -- 81
2020-03-26 02:00:00 10.3 4 Sudeste 13 Sudoeste 0 -- -- 80
2020-03-26 01:00:00 10.8 7 Oeste 14 Noroeste 0 -- -- 81
2020-03-26 00:00:00 10.9 3 Oeste 14 Oeste 0 -- -- 82
2020-03-25 23:00:00 11 8 Oeste 11 Oeste 0 -- -- 82
2020-03-25 22:00:00 10.8 4 Sudoeste 10 Oeste 0 -- -- 80
2020-03-25 21:00:00 10.6 6 Sudoeste 13 Oeste 0 -- -- 77
2020-03-25 20:00:00 10.2 10 Oeste 14 Oeste 0 -- -- 80
2020-03-25 19:00:00 10.1 2 Sudoeste 14 Norte 0.6 -- -- 86
2020-03-25 18:00:00 11 5 Noroeste 12 Noroeste 0 -- -- 77
2020-03-25 17:00:00 11.1 3 Norte 9 Norte 0 -- -- 77
2020-03-25 16:00:00 11.4 4 Norte 10 Norte 0 -- -- 76
2020-03-25 15:00:00 11.3 3 Norte 12 Oeste 0.2 -- -- 77
2020-03-25 14:00:00 10.8 5 Oeste 15 Oeste 0.6 -- -- 82
2020-03-25 13:00:00 11.3 6 Oeste 17 Sudoeste 0.2 -- -- 80
2020-03-25 12:00:00 10.7 8 Oeste 16 Oeste 0.2 -- -- 79
2020-03-25 11:00:00 11 9 Sudoeste 17 Sudoeste 0.2 -- -- 81
2020-03-25 10:00:00 11.3 7 Oeste 12 Oeste 0.6 -- -- 84
2020-03-25 09:00:00 11.1 9 Sudoeste 14 Sudoeste 0.6 -- -- 80
2020-03-25 08:00:00 11.4 6 Sur 13 Sudoeste 0 -- -- 77
2020-03-25 07:00:00 11.7 5 Sudoeste 11 Sudoeste 0 -- -- 83
2020-03-25 06:00:00 11.8 4 Oeste 15 Sudoeste 0 -- -- 88
2020-03-25 05:00:00 12 8 Sur 12 Sur 1 -- -- 87
2020-03-25 04:00:00 13.2 5 Sudeste 15 Oeste 0 -- -- 79
2020-03-25 03:00:00 13.5 10 Oeste 23 Oeste 0 -- -- 76
2020-03-25 02:00:00 13.3 8 Oeste 13 Sudoeste 0 -- -- 76
2020-03-25 01:00:00 13.5 10 Oeste 13 Sudoeste 0 -- -- 78
2020-03-25 00:00:00 13.7 4 Sur 15 Sur 0 -- -- 74
2020-03-24 23:00:00 14.4 5 Sur 11 Sur 0 -- -- 70
2020-03-24 22:00:00 14.8 4 Sur 12 Sudoeste 0 -- -- 67
2020-03-24 21:00:00 14.8 5 Oeste 17 Sudoeste 0 -- -- 71
2020-03-24 20:00:00 14.6 6 Sur 19 Sudeste 0 -- -- 67
2020-03-24 19:00:00 15.4 9 Sur 24 Sur 0 -- -- 68
2020-03-24 18:00:00 16.8 5 Sudeste 22 Sudeste 0 -- -- 59
2020-03-24 17:00:00 17.6 12 Sudeste 32 Este 0 -- -- 56
2020-03-24 16:00:00 20.3 15 Nordeste 40 Este 0 -- -- 42
2020-03-24 15:00:00 19 23 Este 41 Este 0 -- -- 51
2020-03-24 14:00:00 18.3 10 Sudeste 28 Sudeste 0 -- -- 53
2020-03-24 13:00:00 18.2 9 Este 30 Nordeste 0 -- -- 50
2020-03-24 12:00:00 18.3 12 Nordeste 26 Nordeste 0 -- -- 48
2020-03-24 11:00:00 17.8 9 Este 16 Sudeste 0 -- -- 48
2020-03-24 10:00:00 17.5 7 Este 21 Norte 0 -- -- 50
2020-03-24 09:00:00 16.2 2 Oeste 7 Sudeste 0 -- -- 60
2020-03-24 08:00:00 15.8 5 Sur 10 Nordeste 0 -- -- 55
2020-03-24 07:00:00 16 6 Nordeste 20 Nordeste 0 -- -- 53
2020-03-24 06:00:00 16.2 9 Nordeste 24 Nordeste 0 -- -- 49
2020-03-24 05:00:00 15.9 7 Noroeste 22 Noroeste 0.2 -- -- 52
2020-03-24 04:00:00 15.8 13 Noroeste 21 Noroeste 0 -- -- 50
2020-03-24 03:00:00 15.2 6 Norte 22 Norte 0 -- -- 52
2020-03-24 02:00:00 14.5 7 Norte 20 Nordeste 0 -- -- 58
2020-03-24 01:00:00 14.3 7 Sudeste 12 Este 0 -- -- 62
2020-03-24 00:00:00 15.5 5 Oeste 23 Norte 0 -- -- 56
2020-03-23 23:00:00 15.1 11 Norte 21 Noroeste 0 -- -- 56
2020-03-23 22:00:00 14.3 4 Sur 13 Norte 0 -- -- 63
2020-03-23 21:00:00 14 5 Oeste 12 Noroeste 0 -- -- 62
2020-03-23 20:00:00 13.1 0 Calma 14 Noroeste 0 -- -- 72
2020-03-23 19:00:00 13.2 10 Noroeste 32 Norte 0 -- -- 66
2020-03-23 18:00:00 12.1 16 Noroeste 29 Norte 0.2 -- -- 73
2020-03-23 17:00:00 11.3 9 Nordeste 32 Este 2.6 -- -- 86
2020-03-23 16:00:00 11.9 24 Este 37 Este 1.8 -- -- 89
2020-03-23 15:00:00 13.2 21 Sudeste 34 Este 0 -- -- 78
2020-03-23 14:00:00 16.5 17 Este 26 Este 0 -- -- 63
2020-03-23 13:00:00 15.7 11 Este 20 Este 0 -- -- 65
2020-03-23 12:00:00 15.3 14 Sudeste 23 Sudeste 0 -- -- 65
2020-03-23 11:00:00 15.1 14 Este 22 Este 0 -- -- 64
2020-03-23 10:00:00 13.8 11 Este 21 Sudeste 0 -- -- 70
2020-03-23 09:00:00 12.2 2 Oeste 10 Oeste 0 -- -- 67
2020-03-23 08:00:00 10.6 6 Oeste 14 Oeste 0 -- -- 75
2020-03-23 07:00:00 10.1 4 Oeste 7 Oeste 0 -- -- 82
2020-03-23 06:00:00 9.8 0 Calma 5 Sudoeste 0 -- -- 84
2020-03-23 05:00:00 9.9 6 Oeste 11 Oeste 0 -- -- 84
2020-03-23 04:00:00 10.1 4 Oeste 7 Oeste 0 -- -- 85
2020-03-23 03:00:00 10.2 5 Oeste 13 Oeste 0 -- -- 83
2020-03-23 02:00:00 10.1 6 Oeste 10 Oeste 0 -- -- 85
2020-03-23 01:00:00 9.5 0 Calma 4 Sudoeste 0 -- -- 87
2020-03-23 00:00:00 10 4 Oeste 10 Oeste 0 -- -- 86
2020-03-22 23:00:00 10.1 8 Oeste 10 Oeste 0 -- -- 86
2020-03-22 22:00:00 10.3 4 Sur 9 Oeste 0 -- -- 87
2020-03-22 21:00:00 10.4 4 Oeste 14 Sudoeste 0 -- -- 85
2020-03-22 20:00:00 11.1 9 Sudoeste 12 Sudoeste 0 -- -- 86
2020-03-22 19:00:00 12 6 Oeste 17 Sudoeste 0 -- -- 80
2020-03-22 18:00:00 12.5 9 Sudoeste 22 Sudoeste 0 -- -- 78
2020-03-22 17:00:00 12.6 6 Sudeste 19 Sudeste 0 -- -- 79
2020-03-22 16:00:00 12.7 12 Sudeste 22 Sudeste 0 -- -- 78
2020-03-22 15:00:00 13.4 12 Sudeste 21 Sudeste 0 -- -- 74
2020-03-22 14:00:00 13.6 9 Sudeste 21 Sudeste 0 -- -- 74
2020-03-22 13:00:00 13.9 8 Este 15 Este 0 -- -- 70
2020-03-22 12:00:00 12.3 5 Nordeste 10 Nordeste 0 -- -- 77
2020-03-22 11:00:00 10.9 4 Sudeste 8 Sudeste 0 -- -- 79
2020-03-22 10:00:00 10.6 5 Sudeste 9 Sudeste 0 -- -- 76
2020-03-22 09:00:00 10 0 Calma 8 Oeste 0 -- -- 82
2020-03-22 08:00:00 8.7 3 Oeste 11 Oeste 0.6 -- -- 85
2020-03-22 07:00:00 8.6 9 Oeste 20 Noroeste 1.2 -- -- 83
2020-03-22 06:00:00 8.6 12 Noroeste 20 Noroeste 3.4 -- -- 82
2020-03-22 05:00:00 8.9 8 Oeste 13 Oeste 2.2 -- -- 86
2020-03-22 04:00:00 9.3 9 Sudoeste 14 Sudoeste 3.2 -- -- 87
2020-03-22 03:00:00 9.9 7 Oeste 13 Oeste 0.2 -- -- 82
2020-03-22 02:00:00 10.2 9 Oeste 17 Oeste 0 -- -- 75
2020-03-22 01:00:00 9.4 4 Sudoeste 22 Oeste 3.4 -- -- 88
2020-03-22 00:00:00 10.1 9 Oeste 25 Noroeste 0.8 -- -- 80
2020-03-21 23:00:00 10.3 16 Noroeste 29 Oeste 1 -- -- 81
2020-03-21 22:00:00 10.5 9 Oeste 18 Noroeste 0.2 -- -- 84
2020-03-21 21:00:00 10.6 11 Noroeste 34 Oeste 1.2 -- -- 84
2020-03-21 20:00:00 10.7 13 Noroeste 35 Oeste 1.4 -- -- 85
2020-03-21 19:00:00 10.9 27 Oeste 47 Oeste 2 -- -- 84
2020-03-21 18:00:00 14 20 Oeste 39 Oeste 0 -- -- 63
2020-03-21 17:00:00 15.3 23 Oeste 41 Oeste 0 -- -- 54
2020-03-21 16:00:00 15.6 21 Oeste 39 Oeste 0 -- -- 55
2020-03-21 15:00:00 15.4 20 Oeste 40 Oeste 0 -- -- 60
2020-03-21 14:00:00 15.1 25 Oeste 40 Oeste 0 -- -- 60
2020-03-21 13:00:00 14.8 21 Oeste 39 Oeste 0 -- -- 67
2020-03-21 12:00:00 14.1 18 Oeste 35 Oeste 0 -- -- 73
2020-03-21 11:00:00 13.9 16 Oeste 30 Oeste 0 -- -- 72
2020-03-21 10:00:00 13.1 6 Nordeste 27 Sudoeste 0 -- -- 86
2020-03-21 09:00:00 10.7 15 Sudoeste 23 Sudoeste 0.4 -- -- 86
2020-03-21 08:00:00 10.2 5 Norte 23 Noroeste 1.4 -- -- 87
2020-03-21 07:00:00 10.2 13 Noroeste 33 Oeste 9.4 -- -- 82
2020-03-21 06:00:00 12.3 5 Sudoeste 15 Sudeste 6.6 -- -- 90
2020-03-21 05:00:00 13.1 3 Este 17 Sudeste 1.6 -- -- 87
2020-03-21 04:00:00 13.6 10 Sudeste 18 Sudeste 0 -- -- 80
2020-03-21 03:00:00 13.9 10 Este 22 Sudeste 0 -- -- 75
2020-03-21 02:00:00 13.8 10 Este 19 Sudeste 0 -- -- 79
2020-03-21 01:00:00 13.6 9 Este 16 Este 0 -- -- 80
2020-03-21 00:00:00 13.7 2 Sur 19 Este 0 -- -- 80
2020-03-20 23:00:00 13.6 15 Este 33 Este 0 -- -- 81
2020-03-20 22:00:00 13.7 27 Este 35 Sudeste 0 -- -- 80
2020-03-20 21:00:00 13.7 23 Sudeste 32 Sudeste 0 -- -- 83
2020-03-20 20:00:00 13.7 18 Este 28 Sudeste 0 -- -- 83
2020-03-20 19:00:00 13.9 15 Sudeste 21 Sudeste 0 -- -- 82
2020-03-20 18:00:00 14.8 12 Sudeste 22 Sudeste 0 -- -- 77
2020-03-20 17:00:00 17.1 0 Calma 14 Sudeste 0 -- -- 60
2020-03-20 16:00:00 16 5 Sudeste 19 Sudeste 0 -- -- 64
2020-03-20 15:00:00 17.2 8 Este 25 Sudeste 0 -- -- 62
2020-03-20 14:00:00 16.1 19 Sudeste 28 Sudeste 0 -- -- 68
2020-03-20 13:00:00 18.2 9 Sudeste 15 Sudeste 0 -- -- 54
2020-03-20 12:00:00 15.6 5 Noroeste 19 Sudoeste 0 -- -- 69
2020-03-20 11:00:00 16.2 4 Norte 11 Sudeste 0 -- -- 69
2020-03-20 10:00:00 15 6 Sudeste 14 Este 0 -- -- 73
2020-03-20 09:00:00 14.2 3 Sudeste 15 Sudoeste 0 -- -- 72
2020-03-20 08:00:00 13.5 4 Sudoeste 37 Oeste 0 -- -- 75
2020-03-20 07:00:00 13.6 18 Oeste 30 Oeste 0 -- -- 75
2020-03-20 06:00:00 13.3 4 Oeste 16 Noroeste 0 -- -- 75
2020-03-20 05:00:00 13.2 4 Sudoeste 17 Oeste 0 -- -- 73
2020-03-20 04:00:00 12.8 4 Sudoeste 10 Sudoeste 0 -- -- 76
2020-03-20 03:00:00 13.3 9 Sudoeste 12 Sur 0 -- -- 76
2020-03-20 02:00:00 13 4 Este 10 Este 0 -- -- 82
2020-03-20 01:00:00 13.1 2 Oeste 15 Oeste 0 -- -- 80
2020-03-20 00:00:00 13.9 9 Oeste 15 Oeste 0 -- -- 77
2020-03-19 23:00:00 13.7 7 Sudoeste 27 Sudoeste 0 -- -- 79
2020-03-19 22:00:00 13.9 19 Sudoeste 27 Sudoeste 0 -- -- 81
2020-03-19 21:00:00 14.1 3 Oeste 8 Este 0 -- -- 77
2020-03-19 20:00:00 14.7 0 Calma 9 Oeste 0 -- -- 70
2020-03-19 19:00:00 15.8 9 Oeste 18 Oeste 0 -- -- 67
2020-03-19 18:00:00 16.6 9 Oeste 21 Oeste 0 -- -- 63
2020-03-19 17:00:00 17.8 10 Oeste 24 Oeste 0 -- -- 59
2020-03-19 16:00:00 17.4 12 Sudoeste 23 Sur 0 -- -- 61
2020-03-19 15:00:00 18.2 10 Sur 23 Sudeste 0 -- -- 61
2020-03-19 14:00:00 18.1 9 Oeste 20 Oeste 0 -- -- 60
2020-03-19 13:00:00 18.9 9 Sur 18 Sudoeste 0 -- -- 55
2020-03-19 12:00:00 18.7 9 Sudeste 17 Sudeste 0 -- -- 53
2020-03-19 11:00:00 17.8 5 Este 14 Este 0 -- -- 64
2020-03-19 10:00:00 15.9 3 Este 6 Este 0 -- -- 64
2020-03-19 09:00:00 14.3 0 Calma 7 Oeste 0 -- -- 71
2020-03-19 08:00:00 13 0 Calma 9 Sudeste 0 -- -- 73
2020-03-19 07:00:00 13.5 2 Oeste 10 Oeste 0 -- -- 67
2020-03-19 06:00:00 13.3 4 Oeste 9 Oeste 0 -- -- 70
2020-03-19 05:00:00 13.6 3 Sur 17 Oeste 0 -- -- 69
2020-03-19 04:00:00 14.3 10 Sudoeste 16 Sudoeste 0 -- -- 68
2020-03-19 03:00:00 13.7 5 Sur 14 Sudoeste 0 -- -- 71
2020-03-19 02:00:00 13.4 2 Oeste 11 Sudoeste 0 -- -- 72
2020-03-19 01:00:00 13.7 7 Sudoeste 10 Sur 0 -- -- 74
2020-03-19 00:00:00 14 7 Sur 18 Sur 0 -- -- 78
2020-03-18 23:00:00 13.9 9 Sur 13 Sudoeste 0 -- -- 74
2020-03-18 22:00:00 14 5 Sur 28 Sudeste 0 -- -- 73
2020-03-18 21:00:00 14.2 21 Sudeste 39 Este 0 -- -- 76
2020-03-18 20:00:00 14.5 23 Este 42 Este 0 -- -- 77
2020-03-18 19:00:00 15.1 25 Este 37 Este 0 -- -- 73
2020-03-18 18:00:00 15.6 23 Este 41 Este 0 -- -- 70
2020-03-18 17:00:00 16.6 24 Este 39 Este 0 -- -- 67
2020-03-18 16:00:00 17.1 28 Este 46 Sudeste 0 -- -- 64
2020-03-18 15:00:00 18 25 Este 44 Este 0 -- -- 62
2020-03-18 14:00:00 18.5 29 Este 49 Sudeste 0 -- -- 58
2020-03-18 13:00:00 18.3 28 Este 50 Este 0 -- -- 59
2020-03-18 12:00:00 18.2 31 Este 55 Este 0 -- -- 58
2020-03-18 11:00:00 17.8 36 Este 52 Sudeste 0 -- -- 59
2020-03-18 10:00:00 17.2 33 Este 50 Este 0 -- -- 60
2020-03-18 09:00:00 16.5 25 Sudeste 38 Sudeste 0 -- -- 61
2020-03-18 08:00:00 15.2 22 Sudeste 41 Sudeste 0 -- -- 67
2020-03-18 07:00:00 14.7 24 Este 42 Sudeste 0 -- -- 74
2020-03-18 06:00:00 15.2 25 Este 43 Este 0 -- -- 70
2020-03-18 05:00:00 15.8 19 Sudeste 29 Sudeste 0 -- -- 63
2020-03-18 04:00:00 16.4 13 Sudeste 33 Este 0 -- -- 57
2020-03-18 03:00:00 15.3 21 Este 42 Este 0 -- -- 68
2020-03-18 02:00:00 15 25 Este 42 Este 0 -- -- 72
2020-03-18 01:00:00 14.9 24 Este 54 Este 0 -- -- 78
2020-03-18 00:00:00 15 31 Este 60 Nordeste 0 -- -- 80
2020-03-17 23:00:00 16 18 Sudeste 32 Este 0 -- -- 67
2020-03-17 22:00:00 14.7 18 Este 36 Este 0 -- -- 77
2020-03-17 21:00:00 15.3 18 Sudeste 32 Sudeste 0 -- -- 72
2020-03-17 20:00:00 15.7 14 Sudeste 25 Este 0 -- -- 69
2020-03-17 19:00:00 15.4 16 Este 32 Sudeste 0 -- -- 70
2020-03-17 18:00:00 14 17 Este 30 Este 0 -- -- 79
2020-03-17 17:00:00 14.1 22 Este 32 Este 0 -- -- 82
2020-03-17 16:00:00 14.3 24 Este 41 Este 0 -- -- 80
2020-03-17 15:00:00 15.8 24 Este 37 Este 0 -- -- 70
2020-03-17 14:00:00 15.4 20 Este 42 Este 0 -- -- 54
2020-03-17 13:00:00 15.7 19 Este 29 Este 0 -- -- 47
2020-03-17 12:00:00 13.8 20 Este 40 Este 0 -- -- 60
2020-03-17 11:00:00 14.7 28 Este 41 Sudeste 0 -- -- 56
2020-03-17 10:00:00 15.3 26 Este 39 Este 0 -- -- 56
2020-03-17 09:00:00 13.1 17 Este 27 Este 0 -- -- 53
2020-03-17 08:00:00 11.8 6 Este 15 Nordeste 0 -- -- 55
2020-03-17 07:00:00 10.8 12 Sudeste 19 Este 0 -- -- 59
2020-03-17 06:00:00 10.5 3 Oeste 9 Oeste 0 -- -- 52
2020-03-17 05:00:00 10.7 4 Oeste 9 Oeste 0 -- -- 47
2020-03-17 04:00:00 10.3 2 Sudeste 5 Este 0 -- -- 48
2020-03-17 03:00:00 11 4 Oeste 7 Oeste 0 -- -- 45
2020-03-17 02:00:00 10.7 3 Oeste 6 Sudeste 0 -- -- 48
2020-03-17 01:00:00 11.9 4 Sur 17 Oeste 0 -- -- 43
2020-03-17 00:00:00 12.7 12 Oeste 20 Sudoeste 0 -- -- 38
2020-03-16 23:00:00 11.7 14 Oeste 23 Oeste 0 -- -- 40
2020-03-16 22:00:00 11.7 14 Oeste 30 Oeste 0 -- -- 39
2020-03-16 21:00:00 12.1 20 Oeste 30 Oeste 0 -- -- 40
2020-03-16 20:00:00 12.8 18 Noroeste 35 Noroeste 0 -- -- 37
2020-03-16 19:00:00 13.3 19 Noroeste 47 Noroeste 0 -- -- 35
2020-03-16 18:00:00 14.6 25 Noroeste 45 Oeste 0 -- -- 30
2020-03-16 17:00:00 16.1 24 Noroeste 45 Noroeste 0 -- -- 25
2020-03-16 16:00:00 17 26 Noroeste 46 Noroeste 0 -- -- 21
2020-03-16 15:00:00 17.2 22 Oeste 45 Oeste 0 -- -- 30
2020-03-16 14:00:00 17.3 20 Oeste 42 Oeste 0.2 -- -- 28
2020-03-16 13:00:00 16.8 13 Noroeste 35 Oeste 0 -- -- 28
2020-03-16 12:00:00 15.6 18 Noroeste 33 Noroeste 0 -- -- 30
2020-03-16 11:00:00 15 18 Oeste 39 Noroeste 0 -- -- 42
2020-03-16 10:00:00 14.5 18 Noroeste 27 Noroeste 0 -- -- 62
2020-03-16 09:00:00 13.1 13 Noroeste 29 Oeste 0.2 -- -- 84
2020-03-16 08:00:00 13.4 15 Oeste 29 Oeste 0 -- -- 80
2020-03-16 07:00:00 13.2 14 Oeste 25 Oeste 0 -- -- 79
2020-03-16 06:00:00 13.1 6 Noroeste 17 Oeste 0 -- -- 82
2020-03-16 05:00:00 13 10 Noroeste 25 Oeste 0 -- -- 80
2020-03-16 04:00:00 12.7 4 Este 13 Oeste 0 -- -- 83
2020-03-16 03:00:00 13.2 4 Sur 11 Oeste 0 -- -- 81
2020-03-16 02:00:00 13.5 3 Oeste 6 Noroeste 0 -- -- 83
2020-03-16 01:00:00 13.5 0 Calma 9 Sudeste 0 -- -- 84
2020-03-16 00:00:00 13.5 0 Calma 12 Oeste 0 -- -- 83
2020-03-15 23:00:00 13.8 9 Oeste 12 Oeste 0 -- -- 82
2020-03-15 22:00:00 13.8 4 Oeste 6 Noroeste 0 -- -- 86
2020-03-15 21:00:00 13.7 3 Sur 6 Sur 0 -- -- 88
2020-03-15 20:00:00 14 3 Sur 10 Oeste 0 -- -- 87
2020-03-15 19:00:00 15.3 0 Calma 12 Sudoeste 0 -- -- 79
2020-03-15 18:00:00 16 13 Oeste 17 Oeste 0 -- -- 68
2020-03-15 17:00:00 13.9 6 Noroeste 14 Noroeste 0 -- -- 86
2020-03-15 16:00:00 13.8 4 Este 14 Sudeste 0.2 -- -- 87
2020-03-15 15:00:00 14.4 4 Noroeste 11 Este 0 -- -- 82
2020-03-15 14:00:00 14.4 6 Este 14 Sudeste 0 -- -- 83
2020-03-15 13:00:00 14.7 7 Sudeste 18 Sudoeste 0 -- -- 81
2020-03-15 12:00:00 15.8 4 Noroeste 13 Nordeste 0 -- -- 77
2020-03-15 11:00:00 14.9 8 Este 12 Sudeste 0 -- -- 78
2020-03-15 10:00:00 14.4 4 Este 9 Este 0 -- -- 81
2020-03-15 09:00:00 13.7 2 Este 6 Este 0 -- -- 85
2020-03-15 08:00:00 13.2 2 Sudeste 6 Sudeste 0 -- -- 88
2020-03-15 07:00:00 12.8 2 Sudeste 5 Sudeste 0 -- -- 88
2020-03-15 06:00:00 13.3 0 Calma 4 Sudeste 0 -- -- 86
2020-03-15 05:00:00 13.7 0 Calma 10 Sudeste 0 -- -- 84
2020-03-15 04:00:00 13.7 7 Este 13 Este 0 -- -- 86
2020-03-15 03:00:00 13.8 9 Sudeste 15 Este 0 -- -- 87
2020-03-15 02:00:00 14 7 Este 9 Sudeste 0 -- -- 89
2020-03-15 01:00:00 14 6 Sudeste 13 Este 0 -- -- 90
2020-03-15 00:00:00 14.2 9 Este 13 Este 0 -- -- 90
2020-03-14 23:00:00 14.3 3 Norte 8 Nordeste 0 -- -- 86
2020-03-14 22:00:00 14 0 Calma 4 Oeste 0 -- -- 88
2020-03-14 21:00:00 13 2 Sudeste 4 Oeste 0 -- -- 88
2020-03-14 20:00:00 13.5 4 Oeste 6 Sudeste 0 -- -- 84
2020-03-14 19:00:00 14.3 4 Sur 8 Sudeste 0 -- -- 82
2020-03-14 18:00:00 16 2 Sudeste 16 Sudeste 0 -- -- 74
2020-03-14 17:00:00 16.2 13 Sudeste 21 Sudeste 0 -- -- 74
2020-03-14 16:00:00 17.5 8 Sudeste 14 Sudeste 0 -- -- 69
2020-03-14 15:00:00 17.4 8 Este 19 Sudeste 0 -- -- 70
2020-03-14 14:00:00 16.9 12 Sudeste 19 Sudeste 0 -- -- 68
2020-03-14 13:00:00 17.4 9 Sudeste 18 Este 0 -- -- 69
2020-03-14 12:00:00 16.7 9 Este 18 Sudeste 0 -- -- 73
2020-03-14 11:00:00 17.5 9 Este 19 Este 0 -- -- 68
2020-03-14 10:00:00 15.3 0 Calma 9 Noroeste 0 -- -- 79
2020-03-14 09:00:00 14.3 3 Norte 7 Nordeste 0 -- -- 81
2020-03-14 08:00:00 13.7 0 Calma 5 Norte 0 -- -- 83
2020-03-14 07:00:00 14 2 Norte 6 Norte 0 -- -- 83
2020-03-14 06:00:00 14.2 2 Nordeste 4 Norte 0 -- -- 83
2020-03-14 05:00:00 14.3 0 Calma 5 Sudoeste 0 -- -- 85
2020-03-14 04:00:00 14.3 3 Noroeste 8 Nordeste 0 -- -- 85
2020-03-14 03:00:00 14.3 3 Nordeste 6 Nordeste 0 -- -- 87
2020-03-14 02:00:00 14.4 3 Este 6 Este 0 -- -- 88
2020-03-14 01:00:00 14.4 2 Oeste 4 Este 0 -- -- 86
2020-03-14 00:00:00 14.6 2 Este 9 Este 0 -- -- 89
2020-03-13 23:00:00 14.8 3 Nordeste 7 Norte 0 -- -- 86
2020-03-13 22:00:00 14.7 0 Calma 10 Sudeste 0 -- -- 89
2020-03-13 21:00:00 14.7 3 Este 9 Este 0 -- -- 90
2020-03-13 20:00:00 14.7 5 Sudeste 10 Sudeste 0 -- -- 92
2020-03-13 19:00:00 15 4 Sudeste 9 Sudoeste 0 -- -- 89
2020-03-13 18:00:00 15.7 6 Sudeste 16 Sudeste 0 -- -- 85
2020-03-13 17:00:00 17.4 10 Sudeste 18 Este 0 -- -- 69
2020-03-13 16:00:00 18.6 10 Este 22 Este 0 -- -- 55
2020-03-13 15:00:00 19.3 10 Este 22 Sudeste 0 -- -- 58
2020-03-13 14:00:00 19.9 10 Sudeste 20 Sudeste 0 -- -- 57
2020-03-13 13:00:00 19.7 8 Sudeste 16 Nordeste 0 -- -- 50
2020-03-13 12:00:00 18.3 8 Sudeste 13 Este 0 -- -- 60
2020-03-13 11:00:00 17.8 6 Sudeste 10 Sudeste 0 -- -- 66
2020-03-13 10:00:00 17.2 2 Este 10 Sudeste 0 -- -- 67
2020-03-13 09:00:00 18.3 0 Calma 4 Este 0 -- -- 49
2020-03-13 08:00:00 15.9 0 Calma 5 Sur 0 -- -- 51
2020-03-13 07:00:00 15.8 0 Calma 6 Oeste 0 -- -- 48
2020-03-13 06:00:00 15.9 3 Oeste 5 Oeste 0 -- -- 49
2020-03-13 05:00:00 15.9 2 Oeste 7 Sur 0 -- -- 48
2020-03-13 04:00:00 17 3 Oeste 6 Oeste 0 -- -- 45
2020-03-13 03:00:00 16.8 3 Oeste 6 Sudoeste 0 -- -- 46
2020-03-13 02:00:00 17.4 0 Calma 6 Oeste 0 -- -- 44
2020-03-13 01:00:00 17.6 4 Oeste 8 Noroeste 0 -- -- 43
2020-03-13 00:00:00 17.6 3 Sur 6 Oeste 0 -- -- 44
2020-03-12 23:00:00 17.7 0 Calma 4 Sur 0 -- -- 43
2020-03-12 22:00:00 17.7 2 Sudoeste 6 Sudoeste 0 -- -- 44
2020-03-12 21:00:00 17.6 2 Sur 4 Oeste 0 -- -- 43
2020-03-12 20:00:00 18.4 2 Oeste 6 Oeste 0 -- -- 42
2020-03-12 19:00:00 19.2 4 Oeste 5 Noroeste 0 -- -- 41
2020-03-12 18:00:00 20.9 5 Sur 12 Sudeste 0 -- -- 38
2020-03-12 17:00:00 22.2 9 Sudeste 15 Sudeste 0 -- -- 33
2020-03-12 16:00:00 23.3 10 Sudeste 15 Este 0 -- -- 33
2020-03-12 15:00:00 23.8 9 Sudeste 15 Sudeste 0 -- -- 30
2020-03-12 14:00:00 24.5 9 Sudeste 15 Este 0 -- -- 28
2020-03-12 13:00:00 25 7 Este 13 Sudeste 0 -- -- 30
2020-03-12 12:00:00 24.4 9 Sudeste 15 Sudeste 0 -- -- 32
2020-03-12 11:00:00 26.3 9 Sudeste 13 Sudeste 0 -- -- 28
2020-03-12 10:00:00 26.6 4 Nordeste 10 Norte 0 -- -- 26
2020-03-12 09:00:00 23.2 4 Noroeste 13 Noroeste 0 -- -- 33
2020-03-12 08:00:00 20.5 7 Oeste 13 Oeste 0 -- -- 35
2020-03-12 07:00:00 19.6 3 Oeste 8 Oeste 0 -- -- 36
2020-03-12 06:00:00 19 3 Sudeste 6 Sudeste 0 -- -- 37
2020-03-12 05:00:00 19.7 2 Oeste 6 Norte 0 -- -- 35
2020-03-12 04:00:00 19.1 6 Oeste 21 Noroeste 0 -- -- 36
2020-03-12 03:00:00 17.2 7 Oeste 12 Oeste 0 -- -- 41
2020-03-12 02:00:00 16.3 2 Sudeste 6 Sudeste 0 -- -- 45
2020-03-12 01:00:00 16.9 2 Sudoeste 9 Sudeste 0 -- -- 40
2020-03-12 00:00:00 17.1 4 Sur 13 Sur 0 -- -- 37
2020-03-11 23:00:00 20.5 12 Sur 17 Sur 0 -- -- 36
2020-03-11 22:00:00 23.2 3 Noroeste 11 Oeste 0 -- -- 27
2020-03-11 21:00:00 23.5 8 Oeste 14 Oeste 0 -- -- 29
2020-03-11 20:00:00 20.5 0 Calma 8 Sudeste 0 -- -- 35
2020-03-11 19:00:00 23.5 4 Sudoeste 8 Oeste 0 -- -- 30
2020-03-11 18:00:00 25 3 Oeste 5 Noroeste 0 -- -- 33
2020-03-11 17:00:00 25.1 0 Calma 9 Noroeste 0 -- -- 34
2020-03-11 16:00:00 24.2 3 Este 12 Sudeste 0 -- -- 34
2020-03-11 15:00:00 22.6 8 Sudeste 12 Sudeste 0 -- -- 36
2020-03-11 14:00:00 21.7 7 Este 13 Sudeste 0 -- -- 42
2020-03-11 13:00:00 21 5 Este 12 Este 0 -- -- 42
2020-03-11 12:00:00 20.8 8 Este 13 Sudeste 0 -- -- 40
2020-03-11 11:00:00 21.9 3 Este 9 Sudeste 0 -- -- 42
2020-03-11 10:00:00 20.4 2 Este 6 Este 0 -- -- 49
2020-03-11 09:00:00 18.3 0 Calma 5 Este 0 -- -- 49
2020-03-11 08:00:00 15.2 0 Calma -- -- 0 -- -- 56
2020-03-11 07:00:00 -- -- -- -- -- 0 -- -- --
2020-03-11 06:00:00 -- -- -- -- -- 0 -- -- --
2020-03-11 05:00:00 -- -- -- -- -- 0 -- -- --
2020-03-11 04:00:00 -- -- -- -- -- 0 -- -- --
2020-03-11 03:00:00 -- -- -- -- -- 0 -- -- --
2020-03-11 02:00:00 -- -- -- -- -- 0 -- -- --
2020-03-11 01:00:00 -- -- -- -- -- 0 -- -- --
2020-03-11 00:00:00 -- -- -- -- -- 0 -- -- --
2020-03-10 23:00:00 -- -- -- -- -- 0 -- -- --
2020-03-10 22:00:00 -- -- -- -- -- 0 -- -- --
2020-03-10 21:00:00 -- -- -- -- -- 0 -- -- --
2020-03-10 20:00:00 -- -- -- -- -- 0 -- -- --
2020-03-10 19:00:00 -- 0 Calma 8 Sudeste 0 -- -- --
2020-03-10 18:00:00 16.3 6 Sudeste 12 Sudeste 0 -- -- 53
2020-03-10 17:00:00 17.8 7 Sudeste 14 Sudeste 0 -- -- 47
2020-03-10 16:00:00 17.8 10 Sudeste 18 Sudeste 0 -- -- 52
2020-03-10 15:00:00 17.8 11 Sudeste 21 Sudeste 0 -- -- 51
2020-03-10 14:00:00 18.1 13 Este 23 Sudeste 0 -- -- 50
2020-03-10 13:00:00 19.1 13 Este 21 Este 0 -- -- 45
2020-03-10 12:00:00 20.2 9 Este 15 Este 0 -- -- 36
2020-03-10 11:00:00 20 8 Este 15 Sudeste 0 -- -- 38
2020-03-10 10:00:00 19.7 3 Sudeste 10 Sudeste 0 -- -- 38
2020-03-10 09:00:00 18.2 5 Sudeste 14 Sudeste 0 -- -- 44
2020-03-10 08:00:00 15.9 3 Sur -- -- 0 -- -- 46
2020-03-10 07:00:00 -- -- -- -- -- 0 -- -- --
2020-03-10 06:00:00 -- -- -- -- -- 0 -- -- --
2020-03-10 05:00:00 -- -- -- -- -- 0 -- -- --
2020-03-10 04:00:00 -- -- -- -- -- 0 -- -- --
2020-03-10 03:00:00 -- -- -- -- -- 0 -- -- --
2020-03-10 02:00:00 -- -- -- -- -- 0 -- -- --
2020-03-10 01:00:00 -- -- -- -- -- 0 -- -- --
2020-03-10 00:00:00 -- -- -- -- -- 0 -- -- --
2020-03-09 23:00:00 -- -- -- -- -- 0 -- -- --
2020-03-09 22:00:00 -- -- -- -- -- 0 -- -- --
2020-03-09 21:00:00 -- -- -- -- -- 0 -- -- --
2020-03-09 20:00:00 -- -- -- -- -- 0 -- -- --
2020-03-09 19:00:00 17 5 Oeste 7 Sudoeste 0 -- -- 48
2020-03-09 18:00:00 -- -- -- -- -- 0 -- -- --
2020-03-09 17:00:00 20.6 7 Sudeste 12 Sudeste 0 -- -- 34
2020-03-09 16:00:00 20.8 7 Sudeste 18 Este 0 -- -- 35
2020-03-09 15:00:00 20.7 8 Sudeste 22 Este 0 -- -- 36
2020-03-09 14:00:00 21.1 8 Sudeste 16 Sudeste 0 -- -- 34
2020-03-09 13:00:00 20.9 8 Sudeste 13 Este 0 -- -- 37
2020-03-09 12:00:00 20.9 4 Este 14 Sudeste 0 -- -- 41
2020-03-09 11:00:00 21.2 8 Sudeste 16 Sudeste 0 -- -- 50
2020-03-09 10:00:00 19.6 5 Sudeste 9 Sur 0 -- -- 54
2020-03-09 09:00:00 17 3 Sur 9 Oeste 0 -- -- 38
2020-03-09 08:00:00 -- -- -- -- -- 0 -- -- --
2020-03-09 07:00:00 -- -- -- -- -- 0 -- -- --
2020-03-09 06:00:00 -- -- -- -- -- 0 -- -- --
2020-03-09 05:00:00 -- -- -- -- -- 0 -- -- --
2020-03-09 04:00:00 -- -- -- -- -- 0 -- -- --
2020-03-09 03:00:00 -- -- -- -- -- 0 -- -- --
2020-03-09 02:00:00 -- -- -- -- -- 0 -- -- --
2020-03-09 01:00:00 -- -- -- -- -- 0 -- -- --
2020-03-09 00:00:00 -- -- -- -- -- 0 -- -- --
2020-03-08 23:00:00 -- -- -- -- -- 0 -- -- --
2020-03-08 22:00:00 -- -- -- -- -- 0 -- -- --
2020-03-08 21:00:00 -- -- -- -- -- 0 -- -- --
2020-03-08 20:00:00 -- -- -- -- -- 0 -- -- --
2020-03-08 19:00:00 -- -- -- -- -- 0 -- -- --
2020-03-08 18:00:00 -- -- -- -- -- 0 -- -- --
2020-03-08 17:00:00 18.4 6 Este 10 Sudeste 0 -- -- 59
2020-03-08 16:00:00 19.4 5 Norte 19 Oeste 0 -- -- 55
2020-03-08 15:00:00 20.3 4 Norte 17 Oeste 0 -- -- 51
2020-03-08 14:00:00 20 10 Sur 20 Oeste 0 -- -- 45
2020-03-08 13:00:00 18.2 8 Norte 21 Nordeste 0 -- -- 51
2020-03-08 12:00:00 18.2 10 Este 14 Este 0 -- -- 54
2020-03-08 11:00:00 18.5 5 Este 9 Este 0 -- -- 55
2020-03-08 10:00:00 17.1 4 Este 9 Este 0 -- -- 58
2020-03-08 09:00:00 15.7 5 Este 9 Sudeste 0 -- -- 49
2020-03-08 08:00:00 -- -- -- -- -- 0 -- -- --
2020-03-08 07:00:00 -- -- -- -- -- 0 -- -- --
2020-03-08 06:00:00 -- -- -- -- -- 0 -- -- --
2020-03-08 05:00:00 -- -- -- -- -- 0 -- -- --
2020-03-08 04:00:00 -- -- -- -- -- 0 -- -- --
2020-03-08 03:00:00 -- -- -- -- -- 0 -- -- --
2020-03-08 02:00:00 -- -- -- -- -- 0 -- -- --
2020-03-08 01:00:00 -- -- -- -- -- 0 -- -- --
2020-03-08 00:00:00 -- -- -- -- -- 0 -- -- --